Time;durP1;ratioP1;P1;durP2;ratioP2;P2;SDS_P1;SDS_P2;PMS_P1;PMS_P2;Temp;Humidity;BMP_temperature;BMP_pressure;BME280_temperature;BME280_humidity;BME280_pressure;Samples;Min_cycle;Max_cycle;Signal;HPM_P1;HPM_P2
2022/04/29 00:00:14;;;;;;;10.83;4.47;;;4.80;73.60;;;;;;5074450;28;20043;-66
2022/04/29 00:02:40;;;;;;;10.73;5.32;;;4.90;73.30;;;;;;5090796;28;20111;-66
2022/04/29 00:05:08;;;;;;;9.27;4.45;;;4.90;73.60;;;;;;5091475;28;20382;-66
2022/04/29 00:07:35;;;;;;;7.28;4.28;;;4.90;73.70;;;;;;5073367;28;20092;-66
2022/04/29 00:10:01;;;;;;;9.95;5.55;;;4.90;73.60;;;;;;5089683;28;20039;-66
2022/04/29 00:12:26;;;;;;;9.63;4.33;;;4.90;73.50;;;;;;5104182;28;20047;-66
2022/04/29 00:14:52;;;;;;;14.07;4.57;;;4.90;73.50;;;;;;5091155;28;20122;-66
2022/04/29 00:17:18;;;;;;;12.73;5.00;;;4.90;73.60;;;;;;5074366;28;20047;-66
2022/04/29 00:19:45;;;;;;;11.77;5.40;;;4.90;73.50;;;;;;5088302;28;20044;-66
2022/04/29 00:22:11;;;;;;;11.43;4.70;;;4.80;73.50;;;;;;5074484;28;20449;-66
2022/04/29 00:24:37;;;;;;;11.93;4.50;;;4.80;73.60;;;;;;5074501;28;20051;-66
2022/04/29 00:27:03;;;;;;;8.00;4.30;;;4.90;73.60;;;;;;5074255;28;20578;-66
2022/04/29 00:29:29;;;;;;;8.63;4.13;;;4.90;73.70;;;;;;5073353;28;20039;-66
2022/04/29 00:31:55;;;;;;;9.93;4.60;;;4.80;73.70;;;;;;5074245;28;20061;-65
2022/04/29 00:34:20;;;;;;;8.70;4.90;;;4.80;73.60;;;;;;5091154;28;20165;-65
2022/04/29 00:36:46;;;;;;;12.60;4.30;;;4.80;73.70;;;;;;5073689;28;20487;-65
2022/04/29 00:39:12;;;;;;;8.50;4.20;;;4.80;73.60;;;;;;5074221;28;20124;-65
2022/04/29 00:41:38;;;;;;;13.57;4.87;;;4.80;73.70;;;;;;5089944;28;20055;-65
2022/04/29 00:44:06;;;;;;;7.95;4.50;;;4.80;73.70;;;;;;5090392;28;20051;-65
2022/04/29 00:46:40;;;;;;;10.75;4.63;;;4.70;73.80;;;;;;5086355;28;20031;-65
2022/04/29 00:49:09;;;;;;;12.77;4.97;;;4.80;74.10;;;;;;5072617;28;20059;-65
2022/04/29 00:51:35;;;;;;;10.02;5.07;;;4.80;73.80;;;;;;5090159;28;20051;-65
2022/04/29 00:54:03;;;;;;;7.25;4.32;;;4.80;74.10;;;;;;5089685;28;20032;-65
2022/04/29 00:56:30;;;;;;;11.63;4.43;;;4.80;74.10;;;;;;5072184;28;20036;-65
2022/04/29 00:59:05;;;;;;;11.18;4.18;;;4.80;74.00;;;;;;5089713;27;20047;-65
2022/04/29 01:01:34;;;;;;;11.10;5.15;;;4.80;74.00;;;;;;5074162;28;20040;-65
2022/04/29 01:04:02;;;;;;;12.93;4.90;;;4.90;74.00;;;;;;5073307;28;20039;-65
2022/04/29 01:06:28;;;;;;;12.32;4.95;;;4.90;74.00;;;;;;5090172;28;20038;-65
2022/04/29 01:08:53;;;;;;;8.13;4.40;;;4.90;74.10;;;;;;5089201;28;20035;-65
2022/04/29 01:11:24;;;;;;;10.17;4.90;;;4.90;74.00;;;;;;5088921;28;20032;-65
2022/04/29 01:13:50;;;;;;;9.95;4.63;;;5.00;74.10;;;;;;5088525;28;20043;-65
2022/04/29 01:16:17;;;;;;;12.30;4.40;;;5.00;74.10;;;;;;5089942;28;20044;-65
2022/04/29 01:18:49;;;;;;;11.05;4.78;;;5.00;74.00;;;;;;5089386;28;20053;-65
2022/04/29 01:21:15;;;;;;;11.63;4.53;;;5.00;74.00;;;;;;5073652;28;20050;-65
2022/04/29 01:23:43;;;;;;;9.50;4.33;;;5.00;74.10;;;;;;5089831;28;20122;-65
2022/04/29 01:26:14;;;;;;;10.32;5.30;;;5.00;74.10;;;;;;5086147;28;20039;-65
2022/04/29 01:28:43;;;;;;;8.57;4.80;;;5.00;74.10;;;;;;5073840;28;20120;-65
2022/04/29 01:31:14;;;;;;;11.70;5.53;;;5.00;74.10;;;;;;5089500;28;20043;-66
2022/04/29 01:33:42;;;;;;;11.95;5.00;;;5.00;74.30;;;;;;5088705;28;20052;-66
2022/04/29 01:36:09;;;;;;;10.32;4.47;;;5.00;74.40;;;;;;5073032;27;20498;-66
2022/04/29 01:38:36;;;;;;;10.65;4.70;;;5.00;74.30;;;;;;5099443;28;20496;-66
2022/04/29 01:41:02;;;;;;;10.88;5.03;;;5.00;74.50;;;;;;5071600;28;20691;-66
2022/04/29 01:43:27;;;;;;;11.63;4.63;;;5.00;74.30;;;;;;5072626;28;20039;-66
2022/04/29 01:45:54;;;;;;;8.27;4.90;;;5.00;74.40;;;;;;5067868;28;20058;-66
2022/04/29 01:48:21;;;;;;;10.02;4.28;;;5.00;74.30;;;;;;5073047;28;20039;-66
2022/04/29 01:50:47;;;;;;;7.57;4.93;;;5.00;74.30;;;;;;5087828;28;20056;-66
2022/04/29 01:53:13;;;;;;;11.02;5.13;;;5.00;74.30;;;;;;5071717;28;20099;-66
2022/04/29 01:55:39;;;;;;;13.37;4.70;;;5.00;74.30;;;;;;5088121;28;20031;-65
2022/04/29 01:58:05;;;;;;;11.97;4.90;;;5.00;74.50;;;;;;5071617;28;20301;-65
2022/04/29 02:00:30;;;;;;;8.00;4.67;;;5.00;74.60;;;;;;5088641;27;20119;-65
2022/04/29 02:02:56;;;;;;;7.33;4.50;;;5.00;74.70;;;;;;5072496;28;20392;-65
2022/04/29 02:05:22;;;;;;;12.30;5.13;;;5.00;74.70;;;;;;5072261;28;20039;-65
2022/04/29 02:07:48;;;;;;;9.52;4.80;;;5.00;74.60;;;;;;5088393;28;20140;-65
2022/04/29 02:10:14;;;;;;;10.77;4.93;;;5.00;74.90;;;;;;5071096;28;20043;-65
2022/04/29 02:12:40;;;;;;;11.57;4.97;;;4.90;74.70;;;;;;5070745;28;20089;-65
2022/04/29 02:15:06;;;;;;;12.70;4.70;;;4.90;74.90;;;;;;5071122;28;20047;-65
2022/04/29 02:17:32;;;;;;;9.63;5.40;;;4.90;74.80;;;;;;5071773;28;20032;-65
2022/04/29 02:19:58;;;;;;;10.20;5.20;;;4.90;74.90;;;;;;5071311;28;20464;-65
2022/04/29 02:22:24;;;;;;;9.20;4.80;;;4.80;75.00;;;;;;5056472;28;20461;-65
2022/04/29 02:24:49;;;;;;;9.67;5.00;;;4.80;74.80;;;;;;5084494;28;20036;-65
2022/04/29 02:27:15;;;;;;;9.87;4.50;;;4.80;75.00;;;;;;5071362;28;20039;-65
2022/04/29 02:29:41;;;;;;;10.80;5.20;;;4.80;75.10;;;;;;5085782;28;20059;-65
2022/04/29 02:32:07;;;;;;;9.40;5.03;;;4.70;75.20;;;;;;5087494;28;20036;-65
2022/04/29 02:34:36;;;;;;;7.97;4.57;;;4.70;75.10;;;;;;5073338;28;20042;-65
2022/04/29 02:37:02;;;;;;;11.45;4.85;;;4.70;75.30;;;;;;5088172;28;20047;-65
2022/04/29 02:39:28;;;;;;;10.68;4.82;;;4.70;75.10;;;;;;5088499;28;20043;-65
2022/04/29 02:41:57;;;;;;;13.60;5.57;;;4.70;75.00;;;;;;5071419;28;20100;-65
2022/04/29 02:44:23;;;;;;;10.93;4.90;;;4.70;75.10;;;;;;5088322;28;20395;-65
2022/04/29 02:49:35;;;;;;;10.20;5.32;;;4.60;75.30;;;;;;5070803;28;20115;-65
2022/04/29 02:52:01;;;;;;;13.68;5.65;;;4.60;75.30;;;;;;5087485;28;20043;-65
2022/04/29 02:54:27;;;;;;;9.77;5.47;;;4.50;75.20;;;;;;5073378;28;20494;-65
2022/04/29 02:56:53;;;;;;;9.63;5.03;;;4.50;75.40;;;;;;5087110;28;20031;-65
2022/04/29 02:59:19;;;;;;;10.33;4.90;;;4.50;75.30;;;;;;5071311;28;20483;-65
2022/04/29 03:01:46;;;;;;;9.95;4.32;;;4.50;75.40;;;;;;5071595;28;20039;-65
2022/04/29 03:04:12;;;;;;;11.20;5.82;;;4.50;75.40;;;;;;5087868;28;20490;-65
2022/04/29 03:06:38;;;;;;;12.13;5.60;;;4.50;75.40;;;;;;5070746;28;20043;-65
2022/04/29 03:09:04;;;;;;;13.40;5.22;;;4.50;75.50;;;;;;5067293;28;20040;-65
2022/04/29 03:11:30;;;;;;;9.20;5.45;;;4.50;75.70;;;;;;5080364;28;20495;-65
2022/04/29 03:13:55;;;;;;;11.20;5.80;;;4.50;75.70;;;;;;5087000;28;20043;-65
2022/04/29 03:16:21;;;;;;;13.50;5.80;;;4.50;75.70;;;;;;5087530;28;20039;-65
2022/04/29 03:18:47;;;;;;;11.53;5.27;;;4.60;75.70;;;;;;5088073;28;20056;-65
2022/04/29 03:21:13;;;;;;;12.05;6.38;;;4.60;75.70;;;;;;5087775;28;20071;-65
2022/04/29 03:23:39;;;;;;;11.47;5.63;;;4.60;75.70;;;;;;5080281;28;20098;-65
2022/04/29 03:26:05;;;;;;;8.63;5.33;;;4.60;75.70;;;;;;5071098;28;20043;-65
2022/04/29 03:28:31;;;;;;;14.07;5.93;;;4.60;75.80;;;;;;5070666;28;20083;-65
2022/04/29 03:30:58;;;;;;;9.30;5.88;;;4.60;75.80;;;;;;5087679;28;20050;-65
2022/04/29 03:33:23;;;;;;;9.80;5.60;;;4.60;76.10;;;;;;5086429;28;20040;-65
2022/04/29 03:35:58;;;;;;;9.80;5.13;;;4.60;76.20;;;;;;5071829;28;20058;-65
2022/04/29 03:38:25;;;;;;;9.98;5.57;;;4.60;76.20;;;;;;5070825;28;20146;-65
2022/04/29 03:40:54;;;;;;;12.45;5.40;;;4.60;76.20;;;;;;5071090;28;20044;-65
2022/04/29 03:43:20;;;;;;;12.35;5.15;;;4.60;76.20;;;;;;5071489;28;20036;-65
2022/04/29 03:45:46;;;;;;;9.10;5.78;;;4.60;76.10;;;;;;5069113;28;20046;-65
2022/04/29 03:48:12;;;;;;;10.55;5.57;;;4.60;76.20;;;;;;5087184;28;20093;-65
2022/04/29 03:50:38;;;;;;;10.45;5.18;;;4.60;76.30;;;;;;5085824;28;20057;-65
2022/04/29 03:53:05;;;;;;;8.47;5.93;;;4.70;76.30;;;;;;5088740;28;20040;-65
2022/04/29 03:55:33;;;;;;;8.15;5.25;;;4.70;76.20;;;;;;5087380;28;20044;-65
2022/04/29 03:58:02;;;;;;;10.25;5.40;;;4.70;76.20;;;;;;5090667;28;20039;-65
2022/04/29 04:00:32;;;;;;;11.82;5.78;;;4.70;76.20;;;;;;5090316;28;20063;-65
2022/04/29 04:03:05;;;;;;;11.23;5.80;;;4.70;76.30;;;;;;5091374;28;20051;-65
2022/04/29 04:05:32;;;;;;;12.93;6.07;;;4.80;76.20;;;;;;5071201;28;20100;-65
2022/04/29 04:07:57;;;;;;;12.10;7.22;;;4.80;76.20;;;;;;5073858;28;20100;-65
2022/04/29 04:10:23;;;;;;;11.50;6.37;;;4.80;76.20;;;;;;5056962;28;20464;-65
2022/04/29 04:12:50;;;;;;;16.97;6.10;;;4.90;76.20;;;;;;5073833;28;20122;-65
2022/04/29 04:15:21;;;;;;;13.77;6.18;;;4.90;76.10;;;;;;5072343;28;20043;-65
2022/04/29 04:17:47;;;;;;;14.82;5.53;;;4.90;76.10;;;;;;5087826;28;20039;-65
2022/04/29 04:20:14;;;;;;;14.68;6.28;;;4.90;76.00;;;;;;5088504;28;20126;-65
2022/04/29 04:22:40;;;;;;;10.82;5.38;;;4.90;76.00;;;;;;5090803;28;20035;-65
2022/04/29 04:25:14;;;;;;;8.50;5.47;;;4.90;75.80;;;;;;5091130;28;20041;-65
2022/04/29 04:27:40;;;;;;;11.05;5.82;;;5.00;75.90;;;;;;5090965;28;20050;-65
2022/04/29 04:30:07;;;;;;;10.20;5.07;;;5.00;75.80;;;;;;5056925;28;20039;-65
2022/04/29 04:32:33;;;;;;;11.65;5.70;;;5.00;75.80;;;;;;5074388;28;20119;-65
2022/04/29 04:35:00;;;;;;;9.27;4.75;;;5.10;75.80;;;;;;5090118;28;20035;-65
2022/04/29 04:37:28;;;;;;;8.02;5.20;;;5.10;75.80;;;;;;5088752;28;20039;-65
2022/04/29 04:39:54;;;;;;;10.27;5.18;;;5.10;75.90;;;;;;5070623;28;20083;-65
2022/04/29 04:42:20;;;;;;;8.90;5.22;;;5.10;75.80;;;;;;5074049;28;20038;-65
2022/04/29 04:44:48;;;;;;;13.38;5.07;;;5.10;75.70;;;;;;5090746;28;20040;-65
2022/04/29 04:47:14;;;;;;;8.85;5.13;;;5.10;75.70;;;;;;5071051;28;20043;-65
2022/04/29 04:49:40;;;;;;;9.43;5.10;;;5.10;75.70;;;;;;5089944;28;20061;-65
2022/04/29 04:52:06;;;;;;;9.17;5.17;;;5.20;75.70;;;;;;5090481;28;20487;-65
2022/04/29 04:54:32;;;;;;;9.30;6.00;;;5.30;75.60;;;;;;5096333;27;20038;-65
2022/04/29 04:56:58;;;;;;;13.00;5.15;;;5.30;75.50;;;;;;5095392;28;20288;-65
2022/04/29 04:59:23;;;;;;;12.10;5.43;;;5.40;75.40;;;;;;5089787;28;20051;-65
2022/04/29 05:01:49;;;;;;;12.33;5.10;;;5.40;75.40;;;;;;5073808;28;20035;-65
2022/04/29 05:04:15;;;;;;;8.40;5.03;;;5.50;75.30;;;;;;5072289;28;20054;-65
2022/04/29 05:06:41;;;;;;;9.70;5.30;;;5.50;75.30;;;;;;5089729;28;20070;-65
2022/04/29 05:09:07;;;;;;;8.27;5.13;;;5.60;75.30;;;;;;5086969;28;20122;-66
2022/04/29 05:11:33;;;;;;;7.60;5.40;;;5.60;75.20;;;;;;5090120;28;20043;-66
2022/04/29 05:13:59;;;;;;;9.60;5.70;;;5.70;75.20;;;;;;5055934;28;20042;-66
2022/04/29 05:16:25;;;;;;;9.20;5.37;;;5.80;75.00;;;;;;5072961;28;20065;-66
2022/04/29 05:18:51;;;;;;;10.15;5.78;;;5.90;74.90;;;;;;5089558;28;20077;-66
2022/04/29 05:21:17;;;;;;;9.27;5.60;;;5.90;74.80;;;;;;5072726;28;20039;-66
2022/04/29 05:23:43;;;;;;;10.60;5.13;;;6.00;74.70;;;;;;5089810;28;20043;-66
2022/04/29 05:26:09;;;;;;;9.60;5.37;;;6.00;74.70;;;;;;5072297;28;20046;-66
2022/04/29 05:28:35;;;;;;;8.37;5.27;;;6.10;74.70;;;;;;5088918;28;20469;-66
2022/04/29 05:31:02;;;;;;;8.83;4.77;;;6.20;74.70;;;;;;5089547;28;20564;-66
2022/04/29 05:33:29;;;;;;;6.78;5.15;;;6.20;74.40;;;;;;5079530;28;20044;-66
2022/04/29 05:35:55;;;;;;;8.95;5.32;;;6.30;74.30;;;;;;5091704;28;20747;-66
2022/04/29 05:38:21;;;;;;;9.33;5.57;;;6.40;74.00;;;;;;5088181;28;20040;-66
2022/04/29 05:43:31;;;;;;;8.02;5.15;;;6.50;73.70;;;;;;5089580;28;20282;-66
2022/04/29 05:45:56;;;;;;;8.57;5.30;;;6.50;73.50;;;;;;5070182;28;20484;-66
2022/04/29 05:48:22;;;;;;;8.60;5.20;;;6.60;73.30;;;;;;5086383;28;20123;-66
2022/04/29 05:50:48;;;;;;;9.02;5.88;;;6.70;73.20;;;;;;5070193;28;20611;-66
2022/04/29 05:53:15;;;;;;;7.00;5.20;;;6.80;73.10;;;;;;5072286;28;20154;-66
2022/04/29 05:55:42;;;;;;;12.35;5.03;;;6.80;73.00;;;;;;5084910;28;20285;-66
2022/04/29 05:58:08;;;;;;;7.85;4.53;;;6.90;72.90;;;;;;5072093;28;20286;-66
2022/04/29 06:00:34;;;;;;;9.25;4.78;;;7.00;72.90;;;;;;5071746;28;20507;-66
2022/04/29 06:03:00;;;;;;;8.68;5.03;;;7.00;72.80;;;;;;5072683;28;20043;-66
2022/04/29 06:05:26;;;;;;;9.70;5.10;;;7.10;72.80;;;;;;5071429;28;20046;-66
2022/04/29 06:07:53;;;;;;;8.70;4.68;;;7.10;72.70;;;;;;5072085;28;20346;-66
2022/04/29 06:10:22;;;;;;;8.50;4.47;;;7.30;72.70;;;;;;5087143;28;20108;-66
2022/04/29 06:12:47;;;;;;;9.55;5.30;;;7.40;72.50;;;;;;5088809;28;20047;-66
2022/04/29 06:15:14;;;;;;;6.40;4.70;;;7.50;72.40;;;;;;5072145;28;20048;-66
2022/04/29 06:17:40;;;;;;;10.02;5.32;;;7.60;72.20;;;;;;5071305;28;20036;-66
2022/04/29 06:20:07;;;;;;;7.87;5.20;;;7.80;72.10;;;;;;5070411;28;20076;-66
2022/04/29 06:22:33;;;;;;;7.85;5.32;;;7.90;71.90;;;;;;5087804;28;20043;-66
2022/04/29 06:24:58;;;;;;;7.00;5.27;;;8.20;71.60;;;;;;5087354;28;20111;-66
2022/04/29 06:27:24;;;;;;;8.00;5.03;;;8.50;71.30;;;;;;5070637;28;20038;-66
2022/04/29 06:29:50;;;;;;;10.33;5.23;;;8.90;70.30;;;;;;5070907;28;20322;-66
2022/04/29 06:32:16;;;;;;;8.03;5.10;;;9.20;69.30;;;;;;5088245;28;20294;-66
2022/04/29 06:34:44;;;;;;;9.53;5.50;;;9.40;68.40;;;;;;5088547;28;20067;-66
2022/04/29 06:37:10;;;;;;;10.23;4.70;;;9.50;67.90;;;;;;5088012;28;20040;-66
2022/04/29 06:39:37;;;;;;;8.80;4.68;;;9.70;67.70;;;;;;5071832;28;20043;-66
2022/04/29 06:42:04;;;;;;;5.70;4.40;;;10.00;65.80;;;;;;5071802;28;20130;-66
2022/04/29 06:44:30;;;;;;;6.28;4.32;;;10.20;65.50;;;;;;5088350;28;20115;-66
2022/04/29 06:46:55;;;;;;;8.47;3.80;;;10.40;65.00;;;;;;5085234;28;20142;-66
2022/04/29 06:49:21;;;;;;;8.60;4.00;;;10.50;64.20;;;;;;5040783;28;20863;-66
2022/04/29 06:51:47;;;;;;;9.10;3.80;;;10.40;64.20;;;;;;5036493;28;20047;-66
2022/04/29 06:54:12;;;;;;;8.33;3.73;;;10.30;64.30;;;;;;5059633;28;20039;-66
2022/04/29 06:56:38;;;;;;;6.43;4.00;;;10.10;64.70;;;;;;5069660;28;20066;-66
2022/04/29 06:59:04;;;;;;;6.33;3.37;;;10.00;65.40;;;;;;5086019;28;20047;-66
2022/04/29 07:01:29;;;;;;;8.67;3.50;;;9.90;65.30;;;;;;5071320;28;20043;-66
2022/04/29 07:03:55;;;;;;;6.70;3.40;;;9.90;65.40;;;;;;5052338;28;20039;-66
2022/04/29 07:06:22;;;;;;;5.57;3.03;;;9.80;65.30;;;;;;5063020;28;20052;-66
2022/04/29 07:08:48;;;;;;;7.18;3.20;;;9.80;65.20;;;;;;5072430;28;20500;-67
2022/04/29 07:11:14;;;;;;;6.13;2.53;;;9.80;64.90;;;;;;5087602;28;20100;-67
2022/04/29 07:13:42;;;;;;;5.18;2.63;;;9.80;64.50;;;;;;5071453;28;20043;-67
2022/04/29 07:16:09;;;;;;;5.93;2.28;;;9.90;63.90;;;;;;5072133;28;20534;-67
2022/04/29 07:18:36;;;;;;;4.40;2.65;;;9.90;64.20;;;;;;5070369;28;20807;-67
2022/04/29 07:21:02;;;;;;;6.47;2.35;;;10.00;63.90;;;;;;5087898;28;20044;-67
2022/04/29 07:23:28;;;;;;;6.13;2.60;;;10.20;63.60;;;;;;5086817;28;20052;-66
2022/04/29 07:25:54;;;;;;;4.53;2.50;;;10.30;63.80;;;;;;5087177;28;20044;-66
2022/04/29 07:28:21;;;;;;;8.48;2.90;;;10.40;63.60;;;;;;5069330;28;20043;-66
2022/04/29 07:30:47;;;;;;;8.68;3.00;;;10.60;63.50;;;;;;5074068;27;20114;-66
2022/04/29 07:33:14;;;;;;;7.90;2.33;;;10.80;63.10;;;;;;5094376;27;20031;-67
2022/04/29 07:43:54;;;;;;;4.82;2.83;;;10.80;61.80;;;;;;5109025;27;20043;-67
2022/04/29 07:46:21;;;;;;;5.60;2.13;;;10.90;61.70;;;;;;5074960;28;20524;-67
2022/04/29 07:48:48;;;;;;;5.78;2.40;;;11.10;60.80;;;;;;5056946;28;20117;-67
2022/04/29 07:51:13;;;;;;;5.40;2.40;;;11.20;60.50;;;;;;5052267;28;20055;-67
2022/04/29 07:53:39;;;;;;;4.57;2.03;;;11.30;59.80;;;;;;5068630;28;20488;-67
2022/04/29 07:56:05;;;;;;;6.63;2.47;;;11.30;60.00;;;;;;5084819;28;20454;-67
2022/04/29 07:58:31;;;;;;;8.00;2.60;;;11.40;59.50;;;;;;5065079;28;20044;-67
2022/04/29 08:00:57;;;;;;;6.57;2.65;;;11.50;60.00;;;;;;5064685;28;20123;-67
2022/04/29 08:03:23;;;;;;;6.40;3.13;;;11.50;60.00;;;;;;5048997;28;20040;-67
2022/04/29 08:05:52;;;;;;;11.18;3.08;;;11.60;59.50;;;;;;5064882;28;20174;-67
2022/04/29 08:08:19;;;;;;;4.03;2.40;;;11.70;59.10;;;;;;5082127;28;20032;-67
2022/04/29 08:10:45;;;;;;;8.45;2.38;;;11.70;59.30;;;;;;5089100;28;20089;-67
2022/04/29 08:13:11;;;;;;;6.72;1.88;;;11.80;58.70;;;;;;5088908;28;20362;-67
2022/04/29 08:15:37;;;;;;;5.40;1.90;;;11.80;58.60;;;;;;5090948;28;20467;-67
2022/04/29 08:18:04;;;;;;;4.22;1.73;;;11.70;58.10;;;;;;5073644;28;20036;-67
2022/04/29 08:20:30;;;;;;;6.75;1.75;;;11.60;57.70;;;;;;5072691;28;20122;-67
2022/04/29 08:22:56;;;;;;;4.73;2.13;;;11.60;58.50;;;;;;5073717;28;20075;-67
2022/04/29 08:25:22;;;;;;;6.20;1.50;;;11.60;58.90;;;;;;5086727;28;20043;-68
2022/04/29 08:27:50;;;;;;;3.40;1.70;;;11.70;58.30;;;;;;5056095;28;20496;-68
2022/04/29 08:30:15;;;;;;;4.65;1.60;;;11.60;57.90;;;;;;5088344;28;20505;-68
2022/04/29 08:32:43;;;;;;;4.27;1.73;;;11.50;58.10;;;;;;5080957;28;20047;-68
2022/04/29 08:35:10;;;;;;;4.47;1.38;;;11.50;57.90;;;;;;5080945;28;20087;-68
2022/04/29 08:37:43;;;;;;;3.60;1.70;;;11.40;57.90;;;;;;5063358;28;20040;-67
2022/04/29 08:40:11;;;;;;;6.50;2.13;;;11.30;57.70;;;;;;5080696;28;20367;-67
2022/04/29 08:42:40;;;;;;;6.95;2.00;;;11.20;57.90;;;;;;5064016;28;20040;-67
2022/04/29 08:45:09;;;;;;;5.03;1.95;;;11.20;57.70;;;;;;5082302;28;20044;-67
2022/04/29 08:47:40;;;;;;;4.22;1.92;;;11.00;57.80;;;;;;5081154;28;20389;-67
2022/04/29 08:50:11;;;;;;;4.20;1.83;;;11.00;58.20;;;;;;5078891;28;20063;-67
2022/04/29 08:52:38;;;;;;;5.72;2.22;;;10.90;57.90;;;;;;5024780;28;20037;-67
2022/04/29 09:00:41;;;;;;;6.95;2.40;;;10.80;58.30;;;;;;5060204;28;20062;-67
2022/04/29 09:03:17;;;;;;;3.88;2.08;;;10.80;57.80;;;;;;5061073;28;20452;-67
2022/04/29 09:05:44;;;;;;;4.82;2.17;;;10.70;57.90;;;;;;5061825;28;20276;-68
2022/04/29 09:08:14;;;;;;;4.30;2.08;;;10.70;58.40;;;;;;5044216;28;20055;-67
2022/04/29 09:10:57;;;;;;;6.18;2.10;;;10.80;57.90;;;;;;5028987;28;20451;-67
2022/04/29 09:13:26;;;;;;;5.75;2.15;;;10.80;57.70;;;;;;5047609;28;20097;-67
2022/04/29 09:16:01;;;;;;;4.55;2.20;;;10.80;58.10;;;;;;5068764;28;20093;-67
2022/04/29 09:18:37;;;;;;;5.13;1.77;;;10.90;58.00;;;;;;5067051;28;20044;-67
2022/04/29 09:21:09;;;;;;;4.25;2.13;;;10.90;57.90;;;;;;5067439;28;20036;-67
2022/04/29 09:23:59;;;;;;;6.15;1.90;;;10.90;57.70;;;;;;5048784;28;20040;-67
2022/04/29 09:26:27;;;;;;;7.50;2.10;;;11.00;57.30;;;;;;5067611;28;20040;-67
2022/04/29 09:28:55;;;;;;;5.15;2.00;;;11.00;57.20;;;;;;5066121;28;20052;-67
2022/04/29 09:31:21;;;;;;;6.90;2.20;;;11.00;57.00;;;;;;5063915;28;20124;-67
2022/04/29 09:33:57;;;;;;;4.10;2.17;;;11.00;56.70;;;;;;5048592;28;20048;-67
2022/04/29 09:36:25;;;;;;;5.37;1.93;;;11.10;56.50;;;;;;5071946;28;20045;-67
2022/04/29 09:41:36;;;;;;;4.65;2.55;;;11.40;55.30;;;;;;5063978;28;20055;-67
2022/04/29 09:44:02;;;;;;;5.97;2.20;;;11.50;54.80;;;;;;5049929;28;20559;-67
2022/04/29 09:46:28;;;;;;;5.23;2.50;;;11.60;54.40;;;;;;5058823;28;20576;-67
2022/04/29 09:49:08;;;;;;;6.13;2.70;;;11.70;54.50;;;;;;5066837;28;20058;-67
2022/04/29 09:51:49;;;;;;;7.67;2.60;;;11.70;54.20;;;;;;5085330;28;20156;-67
2022/04/29 09:54:29;;;;;;;7.78;2.75;;;11.80;54.20;;;;;;5075768;28;20368;-67
2022/04/29 09:57:05;;;;;;;4.70;2.80;;;11.80;54.40;;;;;;5086714;28;20502;-67
2022/04/29 09:59:33;;;;;;;5.25;2.90;;;11.90;54.40;;;;;;5087669;28;20043;-68
2022/04/29 10:02:00;;;;;;;7.28;3.47;;;12.00;54.00;;;;;;5093013;28;20047;-68
2022/04/29 10:04:29;;;;;;;5.83;3.20;;;12.00;53.70;;;;;;5087203;28;20046;-68
2022/04/29 10:06:55;;;;;;;4.82;3.20;;;11.90;54.50;;;;;;5088752;28;20338;-68
2022/04/29 10:09:24;;;;;;;6.17;3.37;;;11.90;54.40;;;;;;5067093;28;20606;-68
2022/04/29 10:11:52;;;;;;;6.97;3.50;;;11.90;54.30;;;;;;5084913;28;20036;-68
2022/04/29 10:14:21;;;;;;;5.65;3.22;;;11.80;54.50;;;;;;5083815;28;20083;-68
2022/04/29 10:21:15;;;;;;;7.20;3.25;;;11.70;54.80;;;;;;5067381;28;20043;-68
2022/04/29 10:22:31;;;;;;;7.03;3.40;;;11.50;55.40;;;;;;5087750;28;20523;-68
2022/04/29 10:24:57;;;;;;;5.07;2.93;;;11.40;55.60;;;;;;5069435;28;20590;-68
2022/04/29 10:27:23;;;;;;;6.30;3.07;;;11.40;55.80;;;;;;5071296;28;20317;-68
2022/04/29 10:29:49;;;;;;;8.27;3.53;;;11.40;55.60;;;;;;5087765;28;20043;-68
2022/04/29 10:32:14;;;;;;;4.53;3.47;;;11.40;55.10;;;;;;5075681;28;20043;-68
2022/04/29 10:34:40;;;;;;;7.07;3.00;;;11.40;55.60;;;;;;5090869;28;20050;-68
2022/04/29 10:37:13;;;;;;;5.83;3.10;;;11.40;55.40;;;;;;5079862;28;20039;-68
2022/04/29 10:39:40;;;;;;;5.55;3.35;;;11.40;55.00;;;;;;5086887;28;20514;-68
2022/04/29 10:42:08;;;;;;;10.50;3.78;;;11.50;55.30;;;;;;5068064;28;20046;-68
2022/04/29 10:44:34;;;;;;;5.88;3.10;;;11.70;54.60;;;;;;5053952;28;20355;-67
2022/04/29 10:47:39;;;;;;;7.07;3.03;;;11.90;54.10;;;;;;5067284;28;20121;-67
2022/04/29 10:50:37;;;;;;;5.93;2.97;;;12.00;53.40;;;;;;5069798;28;20313;-67
2022/04/29 10:53:11;;;;;;;6.43;3.13;;;12.10;53.50;;;;;;5074127;28;20185;-67
2022/04/29 10:55:37;;;;;;;4.80;2.40;;;12.20;53.20;;;;;;5070449;28;20039;-67
2022/04/29 10:58:22;;;;;;;4.50;2.37;;;12.40;53.20;;;;;;5083685;28;20495;-67
2022/04/29 11:01:14;;;;;;;5.60;2.50;;;12.50;52.60;;;;;;5087056;28;20067;-67
2022/04/29 11:03:41;;;;;;;5.70;2.93;;;12.70;52.30;;;;;;5062919;28;20054;-67
2022/04/29 11:06:16;;;;;;;9.53;3.27;;;12.70;52.00;;;;;;5074022;28;20274;-67
2022/04/29 11:08:44;;;;;;;7.05;2.60;;;12.60;52.30;;;;;;5072167;28;20281;-68
2022/04/29 11:11:10;;;;;;;4.83;2.80;;;12.50;52.10;;;;;;5090306;28;20088;-68
2022/04/29 11:13:47;;;;;;;5.77;2.50;;;12.30;52.00;;;;;;5070251;28;20296;-68
2022/04/29 11:16:19;;;;;;;5.37;2.53;;;12.10;52.40;;;;;;5090032;28;20638;-68
2022/04/29 11:19:05;;;;;;;5.53;2.77;;;12.00;53.30;;;;;;5069512;28;20281;-68
2022/04/29 11:26:59;;;;;;;5.43;2.50;;;12.10;53.60;;;;;;5077124;28;20054;-67
2022/04/29 11:29:25;;;;;;;3.70;2.00;;;12.20;53.40;;;;;;5090604;28;20651;-67
2022/04/29 11:31:54;;;;;;;4.93;2.23;;;12.20;53.30;;;;;;5076353;27;20035;-68
2022/04/29 11:34:19;;;;;;;5.67;2.53;;;12.20;53.70;;;;;;5058406;27;20423;-68
2022/04/29 11:36:45;;;;;;;4.83;2.50;;;12.40;53.30;;;;;;5097901;27;20283;-67
2022/04/29 11:39:16;;;;;;;3.37;2.20;;;12.40;53.10;;;;;;5077994;27;20027;-67
2022/04/29 11:41:56;;;;;;;4.90;2.43;;;12.40;52.40;;;;;;5091675;28;20046;-67
2022/04/29 11:44:40;;;;;;;9.13;3.10;;;12.40;52.00;;;;;;5073078;28;20289;-67
2022/04/29 11:47:06;;;;;;;4.40;2.30;;;12.40;51.80;;;;;;5076744;27;20858;-68
2022/04/29 11:49:32;;;;;;;4.17;2.30;;;12.30;52.70;;;;;;5090783;27;20301;-68
2022/04/29 11:52:20;;;;;;;5.23;2.30;;;12.40;52.30;;;;;;5094701;28;20055;-68
2022/04/29 11:54:54;;;;;;;3.50;1.90;;;12.30;52.10;;;;;;5085868;27;20296;-68
2022/04/29 11:57:21;;;;;;;6.40;2.10;;;12.40;52.20;;;;;;5080276;28;20312;-68
2022/04/29 11:59:47;;;;;;;6.20;2.20;;;12.40;52.30;;;;;;5085650;27;20380;-67
2022/04/29 12:02:17;;;;;;;9.13;2.53;;;12.40;52.10;;;;;;5092093;28;20295;-68
2022/04/29 12:05:06;;;;;;;5.57;2.20;;;12.30;52.10;;;;;;5088301;28;20331;-68
2022/04/29 12:07:43;;;;;;;3.87;1.50;;;12.30;52.80;;;;;;5060807;28;20304;-68
2022/04/29 12:10:19;;;;;;;3.03;2.27;;;12.30;52.30;;;;;;5073135;28;20317;-68
2022/04/29 12:12:48;;;;;;;6.47;2.10;;;12.20;52.30;;;;;;5066693;28;20306;-68
2022/04/29 12:15:19;;;;;;;5.87;1.87;;;12.10;52.80;;;;;;5072731;28;20373;-68
2022/04/29 12:17:47;;;;;;;7.13;2.10;;;12.10;52.90;;;;;;5068682;27;20675;-68
2022/04/29 12:20:18;;;;;;;6.17;1.70;;;12.00;52.90;;;;;;5095124;28;20294;-68
2022/04/29 12:22:48;;;;;;;3.43;1.60;;;11.90;53.20;;;;;;5076158;28;20293;-68
2022/04/29 12:25:20;;;;;;;4.03;2.07;;;11.80;53.50;;;;;;5090848;28;20380;-68
2022/04/29 12:27:46;;;;;;;4.70;2.00;;;11.70;53.70;;;;;;5093195;27;20701;-68
2022/04/29 12:36:15;;;;;;;6.03;1.80;;;11.80;54.30;;;;;;5080152;27;20441;-68
2022/04/29 12:38:45;;;;;;;4.03;2.00;;;11.90;54.40;;;;;;5090224;28;20277;-68
2022/04/29 12:41:27;;;;;;;4.30;1.90;;;12.20;54.10;;;;;;5085334;28;20289;-68
2022/04/29 12:44:05;;;;;;;5.20;2.07;;;12.60;53.60;;;;;;5090708;28;20320;-68
2022/04/29 12:46:31;;;;;;;4.93;2.20;;;12.90;52.60;;;;;;5090698;28;20782;-68
2022/04/29 12:48:57;;;;;;;5.53;2.43;;;13.10;52.20;;;;;;5072738;27;20300;-68
2022/04/29 12:51:28;;;;;;;5.40;2.43;;;13.10;51.40;;;;;;5075852;27;20082;-68
2022/04/29 12:53:55;;;;;;;2.83;2.33;;;13.20;51.00;;;;;;5092081;27;20047;-68
2022/04/29 12:56:30;;;;;;;6.30;2.80;;;13.20;51.20;;;;;;5066389;28;20285;-68
2022/04/29 12:58:57;;;;;;;3.50;2.28;;;13.20;51.20;;;;;;5073522;28;20297;-68
2022/04/29 13:01:23;;;;;;;6.57;2.43;;;13.20;51.20;;;;;;5087594;28;20419;-68
2022/04/29 13:03:54;;;;;;;5.67;2.33;;;13.10;51.50;;;;;;5088086;28;20364;-68
2022/04/29 13:06:21;;;;;;;4.00;2.17;;;13.10;51.20;;;;;;5091352;28;20376;-68
2022/04/29 13:08:54;;;;;;;4.73;2.63;;;13.00;50.60;;;;;;5071791;28;20356;-68
2022/04/29 13:11:21;;;;;;;5.23;2.53;;;13.00;50.70;;;;;;5072678;27;20580;-68
2022/04/29 13:13:47;;;;;;;3.60;2.30;;;13.00;51.20;;;;;;5092583;28;20365;-68
2022/04/29 13:16:13;;;;;;;5.20;2.60;;;13.00;51.60;;;;;;5062915;28;20354;-68
2022/04/29 13:18:38;;;;;;;5.40;2.73;;;13.10;50.60;;;;;;5090828;28;20532;-68
2022/04/29 13:21:08;;;;;;;3.97;2.50;;;13.00;51.10;;;;;;5091280;28;20039;-68
2022/04/29 13:23:35;;;;;;;3.97;2.20;;;12.90;51.60;;;;;;5091259;28;20056;-68
2022/04/29 13:26:02;;;;;;;7.60;2.30;;;13.00;52.00;;;;;;5087641;28;20285;-68
2022/04/29 13:28:29;;;;;;;5.77;2.70;;;13.00;51.70;;;;;;5091522;28;20313;-68
2022/04/29 13:30:55;;;;;;;5.87;2.30;;;13.10;52.10;;;;;;5067501;27;20712;-68